sensor_id;sensor_type;location;lat;lon;timestamp;temperature;humidity
11242;DHT22;5678;52.370;9.006;2023-07-29T02:04:21;18.00;99.90
11242;DHT22;5678;52.370;9.006;2023-07-29T02:09:18;18.00;99.90
11242;DHT22;5678;52.370;9.006;2023-07-29T02:11:46;18.00;99.90
11242;DHT22;5678;52.370;9.006;2023-07-29T02:16:45;18.10;99.90
11242;DHT22;5678;52.370;9.006;2023-07-29T02:19:13;18.10;99.90
11242;DHT22;5678;52.370;9.006;2023-07-29T02:21:41;18.10;99.90
11242;DHT22;5678;52.370;9.006;2023-07-29T02:24:09;18.00;99.90
11242;DHT22;5678;52.370;9.006;2023-07-29T02:26:37;18.50;99.90
11242;DHT22;5678;52.370;9.006;2023-07-29T02:29:05;18.10;99.90
11242;DHT22;5678;52.370;9.006;2023-07-29T02:31:34;17.90;99.90
11242;DHT22;5678;52.370;9.006;2023-07-29T02:34:04;18.00;99.90
11242;DHT22;5678;52.370;9.006;2023-07-29T02:36:32;18.10;99.90
11242;DHT22;5678;52.370;9.006;2023-07-29T02:39:00;18.00;99.90
11242;DHT22;5678;52.370;9.006;2023-07-29T02:41:28;18.10;99.90
11242;DHT22;5678;52.370;9.006;2023-07-29T02:43:56;18.20;99.90
11242;DHT22;5678;52.370;9.006;2023-07-29T02:46:24;18.20;99.90
11242;DHT22;5678;52.370;9.006;2023-07-29T02:48:53;18.20;99.90
11242;DHT22;5678;52.370;9.006;2023-07-29T02:51:21;18.00;99.90
11242;DHT22;5678;52.370;9.006;2023-07-29T02:53:49;18.10;99.90
11242;DHT22;5678;52.370;9.006;2023-07-29T02:56:17;18.10;99.90
11242;DHT22;5678;52.370;9.006;2023-07-29T02:58:45;18.00;99.90
11242;DHT22;5678;52.370;9.006;2023-07-29T03:01:13;18.10;99.90
11242;DHT22;5678;52.370;9.006;2023-07-29T03:03:41;18.10;99.90
11242;DHT22;5678;52.370;9.006;2023-07-29T03:06:12;18.10;99.90
11242;DHT22;5678;52.370;9.006;2023-07-29T03:08:41;18.00;99.90
11242;DHT22;5678;52.370;9.006;2023-07-29T03:11:10;18.00;99.90
11242;DHT22;5678;52.370;9.006;2023-07-29T03:13:38;18.00;99.90
11242;DHT22;5678;52.370;9.006;2023-07-29T03:16:07;18.00;99.90
11242;DHT22;5678;52.370;9.006;2023-07-29T03:18:35;18.00;99.90
11242;DHT22;5678;52.370;9.006;2023-07-29T03:21:03;18.00;99.90
11242;DHT22;5678;52.370;9.006;2023-07-29T03:23:34;17.90;99.90
11242;DHT22;5678;52.370;9.006;2023-07-29T03:26:03;18.00;99.90
11242;DHT22;5678;52.370;9.006;2023-07-29T03:28:37;17.90;99.90
11242;DHT22;5678;52.370;9.006;2023-07-29T03:31:06;18.20;99.90
11242;DHT22;5678;52.370;9.006;2023-07-29T03:33:34;17.90;99.90
11242;DHT22;5678;52.370;9.006;2023-07-29T03:36:02;18.00;99.90
11242;DHT22;5678;52.370;9.006;2023-07-29T03:38:30;17.90;99.90
11242;DHT22;5678;52.370;9.006;2023-07-29T03:41:01;17.90;99.90
11242;DHT22;5678;52.370;9.006;2023-07-29T03:43:29;17.90;99.90
11242;DHT22;5678;52.370;9.006;2023-07-29T03:45:57;17.80;99.90
11242;DHT22;5678;52.370;9.006;2023-07-29T03:48:25;17.90;99.90
11242;DHT22;5678;52.370;9.006;2023-07-29T03:50:53;17.90;99.90
11242;DHT22;5678;52.370;9.006;2023-07-29T03:53:22;17.80;99.90
11242;DHT22;5678;52.370;9.006;2023-07-29T03:55:50;17.80;99.90
11242;DHT22;5678;52.370;9.006;2023-07-29T03:58:19;17.90;99.90
11242;DHT22;5678;52.370;9.006;2023-07-29T04:00:47;17.90;99.90
11242;DHT22;5678;52.370;9.006;2023-07-29T04:03:15;17.80;99.90
11242;DHT22;5678;52.370;9.006;2023-07-29T04:05:43;17.90;99.90
11242;DHT22;5678;52.370;9.006;2023-07-29T04:08:11;17.70;99.90
11242;DHT22;5678;52.370;9.006;2023-07-29T04:10:39;17.50;99.90
11242;DHT22;5678;52.370;9.006;2023-07-29T04:13:07;17.80;99.90
11242;DHT22;5678;52.370;9.006;2023-07-29T04:15:36;17.90;99.90
11242;DHT22;5678;52.370;9.006;2023-07-29T04:18:04;17.90;99.90
11242;DHT22;5678;52.370;9.006;2023-07-29T04:20:32;17.90;99.90
11242;DHT22;5678;52.370;9.006;2023-07-29T04:23:01;17.90;99.90
11242;DHT22;5678;52.370;9.006;2023-07-29T04:25:29;18.30;99.90
11242;DHT22;5678;52.370;9.006;2023-07-29T04:27:56;18.00;99.90
11242;DHT22;5678;52.370;9.006;2023-07-29T04:30:25;18.00;99.90
11242;DHT22;5678;52.370;9.006;2023-07-29T04:32:54;18.10;99.90
11242;DHT22;5678;52.370;9.006;2023-07-29T04:35:22;18.20;99.90
11242;DHT22;5678;52.370;9.006;2023-07-29T04:37:50;18.40;99.90
11242;DHT22;5678;52.370;9.006;2023-07-29T04:40:18;18.30;99.90
11242;DHT22;5678;52.370;9.006;2023-07-29T04:42:46;18.70;99.90
11242;DHT22;5678;52.370;9.006;2023-07-29T04:45:14;18.80;99.90
11242;DHT22;5678;52.370;9.006;2023-07-29T04:47:42;18.60;99.90
11242;DHT22;5678;52.370;9.006;2023-07-29T04:50:12;18.80;99.90
11242;DHT22;5678;52.370;9.006;2023-07-29T04:52:40;18.90;99.90
11242;DHT22;5678;52.370;9.006;2023-07-29T04:55:08;19.20;99.90
11242;DHT22;5678;52.370;9.006;2023-07-29T04:57:36;19.00;99.90
11242;DHT22;5678;52.370;9.006;2023-07-29T05:00:04;18.80;99.90
11242;DHT22;5678;52.370;9.006;2023-07-29T05:02:32;18.90;99.90
11242;DHT22;5678;52.370;9.006;2023-07-29T05:05:00;18.90;99.90
11242;DHT22;5678;52.370;9.006;2023-07-29T05:07:30;18.90;99.90
11242;DHT22;5678;52.370;9.006;2023-07-29T05:09:58;19.00;99.90
11242;DHT22;5678;52.370;9.006;2023-07-29T05:12:26;19.10;99.90
11242;DHT22;5678;52.370;9.006;2023-07-29T05:14:56;19.20;99.90
11242;DHT22;5678;52.370;9.006;2023-07-29T05:17:24;19.20;99.90
11242;DHT22;5678;52.370;9.006;2023-07-29T05:19:52;19.30;99.90
11242;DHT22;5678;52.370;9.006;2023-07-29T05:22:20;19.20;99.90
11242;DHT22;5678;52.370;9.006;2023-07-29T05:24:49;19.40;99.90
11242;DHT22;5678;52.370;9.006;2023-07-29T05:27:17;19.80;99.90
11242;DHT22;5678;52.370;9.006;2023-07-29T05:29:45;19.40;99.90
11242;DHT22;5678;52.370;9.006;2023-07-29T05:32:13;19.50;99.90
11242;DHT22;5678;52.370;9.006;2023-07-29T05:34:41;19.70;99.90
11242;DHT22;5678;52.370;9.006;2023-07-29T05:37:09;19.80;99.90
11242;DHT22;5678;52.370;9.006;2023-07-29T05:39:37;19.50;99.90
11242;DHT22;5678;52.370;9.006;2023-07-29T05:42:06;19.60;99.90
11242;DHT22;5678;52.370;9.006;2023-07-29T05:44:34;19.50;99.90
11242;DHT22;5678;52.370;9.006;2023-07-29T05:47:03;19.50;99.90
11242;DHT22;5678;52.370;9.006;2023-07-29T05:49:31;19.40;99.90
11242;DHT22;5678;52.370;9.006;2023-07-29T05:51:59;19.60;99.90
11242;DHT22;5678;52.370;9.006;2023-07-29T05:54:26;19.80;99.90
11242;DHT22;5678;52.370;9.006;2023-07-29T05:56:54;19.70;99.90
11242;DHT22;5678;52.370;9.006;2023-07-29T05:59:24;20.10;99.90
11242;DHT22;5678;52.370;9.006;2023-07-29T06:01:52;20.10;99.90
11242;DHT22;5678;52.370;9.006;2023-07-29T06:06:48;19.90;99.90
11242;DHT22;5678;52.370;9.006;2023-07-29T06:09:16;20.20;99.90
11242;DHT22;5678;52.370;9.006;2023-07-29T06:11:44;20.00;99.90
11242;DHT22;5678;52.370;9.006;2023-07-29T06:14:12;20.40;99.90
11242;DHT22;5678;52.370;9.006;2023-07-29T06:16:41;20.10;99.90
11242;DHT22;5678;52.370;9.006;2023-07-29T06:19:09;20.40;99.90
11242;DHT22;5678;52.370;9.006;2023-07-29T06:21:37;20.50;99.90
11242;DHT22;5678;52.370;9.006;2023-07-29T06:24:05;20.60;99.90
11242;DHT22;5678;52.370;9.006;2023-07-29T06:26:36;20.60;99.90
11242;DHT22;5678;52.370;9.006;2023-07-29T06:29:05;20.40;99.90
11242;DHT22;5678;52.370;9.006;2023-07-29T06:31:33;20.50;99.90
11242;DHT22;5678;52.370;9.006;2023-07-29T06:34:02;20.40;99.90
11242;DHT22;5678;52.370;9.006;2023-07-29T06:36:30;20.50;99.90
11242;DHT22;5678;52.370;9.006;2023-07-29T06:38:58;20.60;99.90
11242;DHT22;5678;52.370;9.006;2023-07-29T06:41:26;20.40;99.90
11242;DHT22;5678;52.370;9.006;2023-07-29T06:43:54;20.80;99.90
11242;DHT22;5678;52.370;9.006;2023-07-29T06:46:22;20.70;99.90
11242;DHT22;5678;52.370;9.006;2023-07-29T06:48:50;20.60;99.90
11242;DHT22;5678;52.370;9.006;2023-07-29T06:51:19;20.40;99.90
11242;DHT22;5678;52.370;9.006;2023-07-29T06:53:47;20.60;99.90
11242;DHT22;5678;52.370;9.006;2023-07-29T06:56:15;20.70;99.90
11242;DHT22;5678;52.370;9.006;2023-07-29T06:58:43;20.70;99.90
11242;DHT22;5678;52.370;9.006;2023-07-29T07:01:11;20.90;99.90
11242;DHT22;5678;52.370;9.006;2023-07-29T07:03:39;21.00;99.90
11242;DHT22;5678;52.370;9.006;2023-07-29T07:06:07;20.90;99.90
11242;DHT22;5678;52.370;9.006;2023-07-29T07:08:36;20.90;99.90
11242;DHT22;5678;52.370;9.006;2023-07-29T07:11:04;21.00;99.90
11242;DHT22;5678;52.370;9.006;2023-07-29T07:13:32;21.10;99.90
11242;DHT22;5678;52.370;9.006;2023-07-29T07:16:00;21.20;99.90
11242;DHT22;5678;52.370;9.006;2023-07-29T07:18:28;21.20;99.90
11242;DHT22;5678;52.370;9.006;2023-07-29T07:20:56;21.30;99.90
11242;DHT22;5678;52.370;9.006;2023-07-29T07:23:24;21.40;99.90
11242;DHT22;5678;52.370;9.006;2023-07-29T07:25:53;21.30;99.90
11242;DHT22;5678;52.370;9.006;2023-07-29T07:28:21;21.60;99.90
11242;DHT22;5678;52.370;9.006;2023-07-29T07:30:49;21.60;99.90
11242;DHT22;5678;52.370;9.006;2023-07-29T07:33:17;21.50;99.90
11242;DHT22;5678;52.370;9.006;2023-07-29T07:35:45;21.70;99.90
11242;DHT22;5678;52.370;9.006;2023-07-29T07:38:13;21.50;99.90
11242;DHT22;5678;52.370;9.006;2023-07-29T07:40:41;21.60;99.90
11242;DHT22;5678;52.370;9.006;2023-07-29T07:43:10;21.40;99.90
11242;DHT22;5678;52.370;9.006;2023-07-29T07:45:38;21.60;99.90
11242;DHT22;5678;52.370;9.006;2023-07-29T07:48:06;21.50;99.90
11242;DHT22;5678;52.370;9.006;2023-07-29T07:50:36;21.60;99.90
11242;DHT22;5678;52.370;9.006;2023-07-29T07:53:04;21.50;99.90
11242;DHT22;5678;52.370;9.006;2023-07-29T07:55:32;21.30;99.90
11242;DHT22;5678;52.370;9.006;2023-07-29T07:58:00;21.40;99.90
11242;DHT22;5678;52.370;9.006;2023-07-29T08:00:29;21.60;99.90
11242;DHT22;5678;52.370;9.006;2023-07-29T08:02:57;21.70;99.90
11242;DHT22;5678;52.370;9.006;2023-07-29T08:05:25;21.50;99.90
11242;DHT22;5678;52.370;9.006;2023-07-29T08:07:53;21.60;99.90
11242;DHT22;5678;52.370;9.006;2023-07-29T08:10:21;21.60;99.90
11242;DHT22;5678;52.370;9.006;2023-07-29T08:12:49;21.80;99.90
11242;DHT22;5678;52.370;9.006;2023-07-29T08:15:19;22.00;99.90
11242;DHT22;5678;52.370;9.006;2023-07-29T08:17:49;22.00;99.90
11242;DHT22;5678;52.370;9.006;2023-07-29T08:20:17;22.10;99.90
11242;DHT22;5678;52.370;9.006;2023-07-29T08:22:44;22.50;99.90
11242;DHT22;5678;52.370;9.006;2023-07-29T08:25:12;22.60;99.90
11242;DHT22;5678;52.370;9.006;2023-07-29T08:27:40;22.90;99.90
11242;DHT22;5678;52.370;9.006;2023-07-29T08:30:09;22.80;99.90
11242;DHT22;5678;52.370;9.006;2023-07-29T08:32:37;22.20;99.90
11242;DHT22;5678;52.370;9.006;2023-07-29T08:35:07;21.70;99.90
11242;DHT22;5678;52.370;9.006;2023-07-29T08:37:35;21.10;99.90
11242;DHT22;5678;52.370;9.006;2023-07-29T08:40:04;21.00;99.90
11242;DHT22;5678;52.370;9.006;2023-07-29T08:42:32;20.90;99.90
11242;DHT22;5678;52.370;9.006;2023-07-29T08:45:07;21.30;99.90
11242;DHT22;5678;52.370;9.006;2023-07-29T08:47:35;21.50;99.90
11242;DHT22;5678;52.370;9.006;2023-07-29T08:50:04;22.10;99.90
11242;DHT22;5678;52.370;9.006;2023-07-29T08:52:34;22.20;99.90
11242;DHT22;5678;52.370;9.006;2023-07-29T08:55:02;22.50;99.90
11242;DHT22;5678;52.370;9.006;2023-07-29T08:57:31;22.60;99.90
11242;DHT22;5678;52.370;9.006;2023-07-29T08:59:59;22.60;99.90
11242;DHT22;5678;52.370;9.006;2023-07-29T09:02:28;22.60;99.90
11242;DHT22;5678;52.370;9.006;2023-07-29T09:04:57;22.60;99.90
11242;DHT22;5678;52.370;9.006;2023-07-29T09:07:25;22.70;99.90
11242;DHT22;5678;52.370;9.006;2023-07-29T09:09:55;22.50;99.90
11242;DHT22;5678;52.370;9.006;2023-07-29T09:12:23;22.50;99.90
11242;DHT22;5678;52.370;9.006;2023-07-29T09:14:52;22.40;99.90
11242;DHT22;5678;52.370;9.006;2023-07-29T09:17:21;22.30;99.90
11242;DHT22;5678;52.370;9.006;2023-07-29T09:19:49;22.80;99.90
11242;DHT22;5678;52.370;9.006;2023-07-29T09:22:18;22.80;99.90
11242;DHT22;5678;52.370;9.006;2023-07-29T09:24:47;23.30;99.90
11242;DHT22;5678;52.370;9.006;2023-07-29T09:27:25;23.60;99.90
11242;DHT22;5678;52.370;9.006;2023-07-29T09:29:54;23.40;99.90
11242;DHT22;5678;52.370;9.006;2023-07-29T09:32:23;23.00;99.90
11242;DHT22;5678;52.370;9.006;2023-07-29T09:34:52;23.00;99.90
11242;DHT22;5678;52.370;9.006;2023-07-29T09:37:21;22.90;99.90
11242;DHT22;5678;52.370;9.006;2023-07-29T09:39:50;22.90;99.90
11242;DHT22;5678;52.370;9.006;2023-07-29T09:42:18;23.00;99.90
11242;DHT22;5678;52.370;9.006;2023-07-29T09:44:49;23.30;99.90
11242;DHT22;5678;52.370;9.006;2023-07-29T09:47:21;23.60;99.90
11242;DHT22;5678;52.370;9.006;2023-07-29T09:49:49;23.60;99.90
11242;DHT22;5678;52.370;9.006;2023-07-29T09:52:18;23.80;99.90
11242;DHT22;5678;52.370;9.006;2023-07-29T09:54:47;24.00;99.90
11242;DHT22;5678;52.370;9.006;2023-07-29T09:57:17;24.10;99.90
11242;DHT22;5678;52.370;9.006;2023-07-29T09:59:54;24.40;99.90
11242;DHT22;5678;52.370;9.006;2023-07-29T10:02:22;24.90;99.90
11242;DHT22;5678;52.370;9.006;2023-07-29T10:04:52;25.30;99.90
11242;DHT22;5678;52.370;9.006;2023-07-29T10:07:21;25.60;99.90
11242;DHT22;5678;52.370;9.006;2023-07-29T10:09:52;25.70;99.90
11242;DHT22;5678;52.370;9.006;2023-07-29T10:12:20;25.60;99.90
11242;DHT22;5678;52.370;9.006;2023-07-29T10:14:49;25.70;99.90
11242;DHT22;5678;52.370;9.006;2023-07-29T10:17:20;25.90;99.90
11242;DHT22;5678;52.370;9.006;2023-07-29T10:19:49;26.00;99.90
11242;DHT22;5678;52.370;9.006;2023-07-29T10:22:20;26.10;99.90
11242;DHT22;5678;52.370;9.006;2023-07-29T10:24:48;26.30;99.90
11242;DHT22;5678;52.370;9.006;2023-07-29T10:27:19;26.40;99.90
11242;DHT22;5678;52.370;9.006;2023-07-29T10:29:48;26.50;99.90
11242;DHT22;5678;52.370;9.006;2023-07-29T10:32:16;26.70;99.90
11242;DHT22;5678;52.370;9.006;2023-07-29T10:34:46;26.90;99.90
11242;DHT22;5678;52.370;9.006;2023-07-29T10:37:14;26.60;99.90
11242;DHT22;5678;52.370;9.006;2023-07-29T10:39:52;26.90;99.90
11242;DHT22;5678;52.370;9.006;2023-07-29T10:42:20;26.80;99.90
11242;DHT22;5678;52.370;9.006;2023-07-29T10:44:51;27.10;99.90
11242;DHT22;5678;52.370;9.006;2023-07-29T10:47:22;26.90;99.90
11242;DHT22;5678;52.370;9.006;2023-07-29T10:49:53;26.90;99.90
11242;DHT22;5678;52.370;9.006;2023-07-29T10:52:30;26.90;99.90
11242;DHT22;5678;52.370;9.006;2023-07-29T10:54:58;26.80;99.90
11242;DHT22;5678;52.370;9.006;2023-07-29T10:57:34;26.80;99.90
11242;DHT22;5678;52.370;9.006;2023-07-29T11:00:03;26.70;99.90
11242;DHT22;5678;52.370;9.006;2023-07-29T11:02:34;26.70;99.90
11242;DHT22;5678;52.370;9.006;2023-07-29T11:05:06;26.80;99.90
11242;DHT22;5678;52.370;9.006;2023-07-29T11:07:43;26.90;99.90
11242;DHT22;5678;52.370;9.006;2023-07-29T11:10:12;26.50;99.90
11242;DHT22;5678;52.370;9.006;2023-07-29T11:12:43;26.50;99.90
11242;DHT22;5678;52.370;9.006;2023-07-29T11:15:14;26.10;99.90
11242;DHT22;5678;52.370;9.006;2023-07-29T11:17:44;25.80;99.90
11242;DHT22;5678;52.370;9.006;2023-07-29T11:20:14;25.60;99.90
11242;DHT22;5678;52.370;9.006;2023-07-29T11:22:42;25.40;99.90
11242;DHT22;5678;52.370;9.006;2023-07-29T11:25:12;25.20;99.90
11242;DHT22;5678;52.370;9.006;2023-07-29T11:27:40;25.00;99.90
11242;DHT22;5678;52.370;9.006;2023-07-29T11:30:09;25.10;99.90
11242;DHT22;5678;52.370;9.006;2023-07-29T11:32:39;25.00;99.90
11242;DHT22;5678;52.370;9.006;2023-07-29T11:35:09;24.80;99.90
11242;DHT22;5678;52.370;9.006;2023-07-29T11:37:39;24.70;99.90
11242;DHT22;5678;52.370;9.006;2023-07-29T11:40:08;24.80;99.90
11242;DHT22;5678;52.370;9.006;2023-07-29T11:42:37;25.00;99.90
11242;DHT22;5678;52.370;9.006;2023-07-29T11:45:06;25.50;99.90
11242;DHT22;5678;52.370;9.006;2023-07-29T11:47:35;25.60;99.90
11242;DHT22;5678;52.370;9.006;2023-07-29T11:50:05;25.80;99.90
11242;DHT22;5678;52.370;9.006;2023-07-29T11:52:33;26.30;99.90
11242;DHT22;5678;52.370;9.006;2023-07-29T11:55:04;26.60;99.90
11242;DHT22;5678;52.370;9.006;2023-07-29T11:57:35;26.90;99.90
11242;DHT22;5678;52.370;9.006;2023-07-29T12:00:05;27.00;99.90
11242;DHT22;5678;52.370;9.006;2023-07-29T12:02:35;26.90;99.90
11242;DHT22;5678;52.370;9.006;2023-07-29T12:05:04;26.70;99.90
11242;DHT22;5678;52.370;9.006;2023-07-29T12:07:33;26.60;99.90
11242;DHT22;5678;52.370;9.006;2023-07-29T12:10:03;26.60;99.90
11242;DHT22;5678;52.370;9.006;2023-07-29T12:12:31;26.80;99.90
11242;DHT22;5678;52.370;9.006;2023-07-29T12:14:59;27.20;99.90
11242;DHT22;5678;52.370;9.006;2023-07-29T12:17:28;27.50;99.90
11242;DHT22;5678;52.370;9.006;2023-07-29T12:19:56;27.70;1.00
11242;DHT22;5678;52.370;9.006;2023-07-29T12:22:24;27.90;1.00
11242;DHT22;5678;52.370;9.006;2023-07-29T12:24:52;27.80;1.00
11242;DHT22;5678;52.370;9.006;2023-07-29T12:27:22;27.70;1.00
11242;DHT22;5678;52.370;9.006;2023-07-29T12:29:52;27.90;1.00
11242;DHT22;5678;52.370;9.006;2023-07-29T12:32:20;27.80;1.00
11242;DHT22;5678;52.370;9.006;2023-07-29T12:34:48;27.60;1.00
11242;DHT22;5678;52.370;9.006;2023-07-29T12:37:16;27.50;1.00
11242;DHT22;5678;52.370;9.006;2023-07-29T12:39:43;27.70;1.00
11242;DHT22;5678;52.370;9.006;2023-07-29T12:42:11;27.70;1.00
11242;DHT22;5678;52.370;9.006;2023-07-29T12:44:41;27.70;1.00
11242;DHT22;5678;52.370;9.006;2023-07-29T12:47:08;27.80;1.00
11242;DHT22;5678;52.370;9.006;2023-07-29T12:49:38;27.80;1.00
11242;DHT22;5678;52.370;9.006;2023-07-29T12:52:06;27.60;1.00
11242;DHT22;5678;52.370;9.006;2023-07-29T12:54:34;27.50;1.00
11242;DHT22;5678;52.370;9.006;2023-07-29T12:57:02;27.50;1.00
11242;DHT22;5678;52.370;9.006;2023-07-29T12:59:30;27.60;1.00
11242;DHT22;5678;52.370;9.006;2023-07-29T13:01:59;27.70;1.00
11242;DHT22;5678;52.370;9.006;2023-07-29T13:04:27;27.80;1.00
11242;DHT22;5678;52.370;9.006;2023-07-29T13:06:55;27.80;1.00
11242;DHT22;5678;52.370;9.006;2023-07-29T13:09:23;27.70;1.00
11242;DHT22;5678;52.370;9.006;2023-07-29T13:11:51;27.60;1.00
11242;DHT22;5678;52.370;9.006;2023-07-29T13:14:19;27.60;1.00
11242;DHT22;5678;52.370;9.006;2023-07-29T13:16:47;27.60;1.00
11242;DHT22;5678;52.370;9.006;2023-07-29T13:19:16;27.50;1.00
11242;DHT22;5678;52.370;9.006;2023-07-29T13:21:45;27.60;1.00
11242;DHT22;5678;52.370;9.006;2023-07-29T13:24:13;27.60;1.00
11242;DHT22;5678;52.370;9.006;2023-07-29T13:26:41;27.60;1.00
11242;DHT22;5678;52.370;9.006;2023-07-29T13:29:10;27.60;1.00
11242;DHT22;5678;52.370;9.006;2023-07-29T13:31:37;27.40;1.00
11242;DHT22;5678;52.370;9.006;2023-07-29T13:34:05;27.20;1.00
11242;DHT22;5678;52.370;9.006;2023-07-29T13:36:35;26.90;1.00
11242;DHT22;5678;52.370;9.006;2023-07-29T13:39:03;26.80;1.00
11242;DHT22;5678;52.370;9.006;2023-07-29T13:41:31;26.80;1.00
11242;DHT22;5678;52.370;9.006;2023-07-29T13:43:59;26.80;1.00
11242;DHT22;5678;52.370;9.006;2023-07-29T13:46:27;26.90;1.00
11242;DHT22;5678;52.370;9.006;2023-07-29T13:48:55;27.20;1.00
11242;DHT22;5678;52.370;9.006;2023-07-29T13:51:23;27.40;1.00
11242;DHT22;5678;52.370;9.006;2023-07-29T13:53:52;27.30;1.00
11242;DHT22;5678;52.370;9.006;2023-07-29T13:56:20;26.80;1.00
11242;DHT22;5678;52.370;9.006;2023-07-29T13:58:48;26.70;1.00
11242;DHT22;5678;52.370;9.006;2023-07-29T14:01:16;26.70;1.00
11242;DHT22;5678;52.370;9.006;2023-07-29T14:03:44;26.80;1.00
11242;DHT22;5678;52.370;9.006;2023-07-29T14:06:12;27.00;1.00
11242;DHT22;5678;52.370;9.006;2023-07-29T14:08:40;27.20;1.00
11242;DHT22;5678;52.370;9.006;2023-07-29T14:11:09;27.30;1.00
11242;DHT22;5678;52.370;9.006;2023-07-29T14:13:37;27.40;1.00
11242;DHT22;5678;52.370;9.006;2023-07-29T14:16:05;27.50;1.00
11242;DHT22;5678;52.370;9.006;2023-07-29T14:18:33;27.40;1.00
11242;DHT22;5678;52.370;9.006;2023-07-29T14:21:01;27.40;1.00
11242;DHT22;5678;52.370;9.006;2023-07-29T14:23:29;27.50;1.00
11242;DHT22;5678;52.370;9.006;2023-07-29T14:25:59;27.40;1.00
11242;DHT22;5678;52.370;9.006;2023-07-29T14:28:28;27.00;1.00
11242;DHT22;5678;52.370;9.006;2023-07-29T14:30:56;26.80;1.00
11242;DHT22;5678;52.370;9.006;2023-07-29T14:33:25;26.60;1.00
11242;DHT22;5678;52.370;9.006;2023-07-29T14:35:53;26.60;1.00
11242;DHT22;5678;52.370;9.006;2023-07-29T14:38:21;26.40;1.00
11242;DHT22;5678;52.370;9.006;2023-07-29T14:40:48;26.10;1.00
11242;DHT22;5678;52.370;9.006;2023-07-29T14:43:17;26.00;1.00
11242;DHT22;5678;52.370;9.006;2023-07-29T14:45:46;25.80;1.00
11242;DHT22;5678;52.370;9.006;2023-07-29T14:48:14;25.10;1.00
11242;DHT22;5678;52.370;9.006;2023-07-29T14:50:42;25.40;1.00
11242;DHT22;5678;52.370;9.006;2023-07-29T14:53:11;25.40;1.00
11242;DHT22;5678;52.370;9.006;2023-07-29T14:55:39;25.50;1.00
11242;DHT22;5678;52.370;9.006;2023-07-29T14:58:07;25.60;1.00
11242;DHT22;5678;52.370;9.006;2023-07-29T15:00:35;25.50;1.00
11242;DHT22;5678;52.370;9.006;2023-07-29T15:03:04;25.50;1.00
11242;DHT22;5678;52.370;9.006;2023-07-29T15:05:34;25.50;1.00
11242;DHT22;5678;52.370;9.006;2023-07-29T15:08:02;25.60;1.00
11242;DHT22;5678;52.370;9.006;2023-07-29T15:10:30;25.70;1.00
11242;DHT22;5678;52.370;9.006;2023-07-29T15:12:58;25.80;1.00
11242;DHT22;5678;52.370;9.006;2023-07-29T15:15:25;25.60;1.00
11242;DHT22;5678;52.370;9.006;2023-07-29T15:17:53;25.40;1.00
11242;DHT22;5678;52.370;9.006;2023-07-29T15:20:25;25.90;1.00
11242;DHT22;5678;52.370;9.006;2023-07-29T15:22:53;25.20;1.00
11242;DHT22;5678;52.370;9.006;2023-07-29T15:25:20;25.00;1.00
11242;DHT22;5678;52.370;9.006;2023-07-29T15:27:48;24.90;1.00
11242;DHT22;5678;52.370;9.006;2023-07-29T15:30:16;24.90;1.00
11242;DHT22;5678;52.370;9.006;2023-07-29T15:32:45;24.90;1.00
11242;DHT22;5678;52.370;9.006;2023-07-29T15:35:13;25.00;1.00
11242;DHT22;5678;52.370;9.006;2023-07-29T15:37:42;24.90;1.00
11242;DHT22;5678;52.370;9.006;2023-07-29T15:40:12;24.90;1.00
11242;DHT22;5678;52.370;9.006;2023-07-29T15:42:40;24.90;1.00
11242;DHT22;5678;52.370;9.006;2023-07-29T15:45:09;24.90;1.00
11242;DHT22;5678;52.370;9.006;2023-07-29T15:47:37;25.00;1.00
11242;DHT22;5678;52.370;9.006;2023-07-29T15:50:06;24.90;1.00
11242;DHT22;5678;52.370;9.006;2023-07-29T15:52:34;24.80;1.00
11242;DHT22;5678;52.370;9.006;2023-07-29T15:55:04;24.70;1.00
11242;DHT22;5678;52.370;9.006;2023-07-29T15:57:32;24.50;1.00
11242;DHT22;5678;52.370;9.006;2023-07-29T16:00:00;24.00;99.90
11242;DHT22;5678;52.370;9.006;2023-07-29T16:02:28;23.20;1.00
11242;DHT22;5678;52.370;9.006;2023-07-29T16:04:56;22.40;1.00
11242;DHT22;5678;52.370;9.006;2023-07-29T16:07:24;22.10;99.60
11242;DHT22;5678;52.370;9.006;2023-07-29T16:09:52;21.80;99.90
11242;DHT22;5678;52.370;9.006;2023-07-29T16:12:21;21.80;99.90
11242;DHT22;5678;52.370;9.006;2023-07-29T16:14:49;21.80;99.90
11242;DHT22;5678;52.370;9.006;2023-07-29T16:17:17;21.90;99.90
11242;DHT22;5678;52.370;9.006;2023-07-29T16:19:53;22.00;99.90
11242;DHT22;5678;52.370;9.006;2023-07-29T16:22:22;22.40;1.00
11242;DHT22;5678;52.370;9.006;2023-07-29T16:24:50;22.50;1.00
11242;DHT22;5678;52.370;9.006;2023-07-29T16:27:19;22.50;90.60
11242;DHT22;5678;52.370;9.006;2023-07-29T16:29:48;22.40;99.90
11242;DHT22;5678;52.370;9.006;2023-07-29T16:32:17;22.50;99.90
11242;DHT22;5678;52.370;9.006;2023-07-29T16:34:45;22.40;1.00
11242;DHT22;5678;52.370;9.006;2023-07-29T16:37:13;22.50;1.00
11242;DHT22;5678;52.370;9.006;2023-07-29T16:39:41;22.50;1.00
11242;DHT22;5678;52.370;9.006;2023-07-29T16:42:09;22.70;1.00
11242;DHT22;5678;52.370;9.006;2023-07-29T16:44:37;22.80;1.00
11242;DHT22;5678;52.370;9.006;2023-07-29T16:47:08;22.70;1.00
11242;DHT22;5678;52.370;9.006;2023-07-29T16:49:36;22.60;1.00
11242;DHT22;5678;52.370;9.006;2023-07-29T16:52:05;22.80;1.00
11242;DHT22;5678;52.370;9.006;2023-07-29T16:54:33;22.50;99.90
11242;DHT22;5678;52.370;9.006;2023-07-29T16:57:01;22.60;99.90
11242;DHT22;5678;52.370;9.006;2023-07-29T16:59:29;22.40;99.90
11242;DHT22;5678;52.370;9.006;2023-07-29T17:01:57;22.40;99.90
11242;DHT22;5678;52.370;9.006;2023-07-29T17:04:26;22.80;99.90
11242;DHT22;5678;52.370;9.006;2023-07-29T17:06:54;22.50;99.90
11242;DHT22;5678;52.370;9.006;2023-07-29T17:09:22;22.20;99.90
11242;DHT22;5678;52.370;9.006;2023-07-29T17:11:50;22.20;99.90
11242;DHT22;5678;52.370;9.006;2023-07-29T17:14:18;22.10;99.90
11242;DHT22;5678;52.370;9.006;2023-07-29T17:16:46;22.30;99.90
11242;DHT22;5678;52.370;9.006;2023-07-29T17:19:14;22.10;99.90
11242;DHT22;5678;52.370;9.006;2023-07-29T17:21:43;22.40;99.90
11242;DHT22;5678;52.370;9.006;2023-07-29T17:24:11;22.40;99.90
11242;DHT22;5678;52.370;9.006;2023-07-29T17:26:39;22.10;99.90
11242;DHT22;5678;52.370;9.006;2023-07-29T17:29:07;22.20;99.90
11242;DHT22;5678;52.370;9.006;2023-07-29T17:31:34;22.20;99.90
11242;DHT22;5678;52.370;9.006;2023-07-29T17:34:02;21.90;99.90
11242;DHT22;5678;52.370;9.006;2023-07-29T17:36:30;21.90;99.90
11242;DHT22;5678;52.370;9.006;2023-07-29T17:39:00;22.00;99.90
11242;DHT22;5678;52.370;9.006;2023-07-29T17:41:27;22.00;99.90
11242;DHT22;5678;52.370;9.006;2023-07-29T17:43:55;21.90;99.90
11242;DHT22;5678;52.370;9.006;2023-07-29T17:46:23;21.70;99.90
11242;DHT22;5678;52.370;9.006;2023-07-29T17:48:51;21.70;99.90
11242;DHT22;5678;52.370;9.006;2023-07-29T17:51:19;21.50;99.90
11242;DHT22;5678;52.370;9.006;2023-07-29T17:53:47;21.50;99.90
11242;DHT22;5678;52.370;9.006;2023-07-29T17:56:17;21.40;99.90
11242;DHT22;5678;52.370;9.006;2023-07-29T17:58:45;21.60;99.90
11242;DHT22;5678;52.370;9.006;2023-07-29T18:01:13;21.40;99.90
11242;DHT22;5678;52.370;9.006;2023-07-29T18:03:41;21.10;99.90
11242;DHT22;5678;52.370;9.006;2023-07-29T18:06:12;21.50;99.90
11242;DHT22;5678;52.370;9.006;2023-07-29T18:08:40;21.20;99.90